Somerset, Ohio
Current Conditions -  °F | °C
As of 11:54 AM on Friday 28 Nov 2014 (Local Time) from KVTA Reporting Station
Overcast Overcast  
Wind Chill: 20°   Ceiling: 10000
Heat Index: 28°   Visibility: 10mi
Dew Point: 16°   Wind: 8mph
Humidity: 61%   Direction: 240°WSW
Pressure: 30.32"   Gusts: NA
Location:  39.81°N, 82.3°W
Report Text: KVTA 281654Z AUTO 24007KT 10SM FEW030 OVC100 M02/M09 A3032 RMK AO2 SLP279 T10221089
Loading
Personal Weather Stations






























Interactive Weather Map New forecast layout! Learn more

10-Day Weather Forecast

Advertisements
Track Severe Weather on mobile